createdAt,value
2023-04-18T00:00:49.354Z,8.60
2023-04-18T00:03:18.333Z,8.70
2023-04-18T00:05:48.303Z,8.70
2023-04-18T00:08:17.444Z,8.60
2023-04-18T00:10:46.314Z,8.70
2023-04-18T00:13:19.406Z,8.70
2023-04-18T00:15:48.230Z,8.70
2023-04-18T00:18:17.313Z,8.70
2023-04-18T00:20:47.435Z,8.70
2023-04-18T00:23:16.468Z,8.70
2023-04-18T00:25:45.284Z,8.80
2023-04-18T00:28:15.588Z,8.80
2023-04-18T00:30:44.350Z,8.60
2023-04-18T00:33:13.022Z,8.60
2023-04-18T00:35:41.954Z,8.70
2023-04-18T00:38:10.680Z,8.70
2023-04-18T00:40:39.619Z,8.80
2023-04-18T00:43:09.751Z,8.80
2023-04-18T00:45:40.001Z,8.80
2023-04-18T00:48:09.129Z,8.80
2023-04-18T00:50:40.618Z,8.80
2023-04-18T00:53:12.485Z,8.80
2023-04-18T00:55:41.596Z,8.70
2023-04-18T00:58:10.598Z,8.80
2023-04-18T01:00:40.909Z,8.80
2023-04-18T01:03:10.870Z,8.80
2023-04-18T01:05:40.303Z,8.80
2023-04-18T01:08:09.072Z,8.80
2023-04-18T01:10:38.460Z,8.80
2023-04-18T01:13:15.175Z,8.80
2023-04-18T01:15:48.057Z,8.90
2023-04-18T01:18:18.561Z,8.90
2023-04-18T01:20:50.113Z,8.80
2023-04-18T01:23:21.905Z,8.80
2023-04-18T01:25:52.107Z,8.80
2023-04-18T01:28:22.843Z,8.80
2023-04-18T01:30:52.788Z,8.80
2023-04-18T01:33:21.538Z,8.80
2023-04-18T01:35:50.342Z,8.80
2023-04-18T01:38:19.131Z,8.70
2023-04-18T01:40:48.210Z,8.80
2023-04-18T01:43:18.501Z,8.80
2023-04-18T01:45:47.191Z,8.80
2023-04-18T01:48:16.003Z,8.80
2023-04-18T01:50:44.974Z,8.80
2023-04-18T01:53:13.646Z,8.80
2023-04-18T01:55:45.755Z,8.80
2023-04-18T01:58:15.757Z,8.80
2023-04-18T02:00:45.900Z,8.70
2023-04-18T02:03:14.842Z,8.70
2023-04-18T02:05:43.932Z,8.70
2023-04-18T02:08:12.725Z,8.80
2023-04-18T02:10:42.706Z,8.70
2023-04-18T02:13:11.388Z,8.80
2023-04-18T02:15:40.184Z,8.80
2023-04-18T02:18:11.693Z,8.80
2023-04-18T02:20:41.922Z,8.80
2023-04-18T02:23:10.760Z,8.70
2023-04-18T02:25:39.505Z,8.70
2023-04-18T02:28:08.224Z,8.60
2023-04-18T02:30:37.128Z,8.60
2023-04-18T02:33:05.995Z,8.50
2023-04-18T02:35:36.611Z,8.60
2023-04-18T02:38:05.387Z,8.70
2023-04-18T02:40:34.117Z,8.70
2023-04-18T02:43:02.835Z,8.70
2023-04-18T02:45:32.793Z,8.70
2023-04-18T02:48:03.369Z,8.70
2023-04-18T02:50:35.547Z,8.70
2023-04-18T02:53:04.530Z,8.70
2023-04-18T02:55:46.074Z,8.70
2023-04-18T02:58:14.859Z,8.70
2023-04-18T03:01:09.291Z,8.80
2023-04-18T03:03:57.527Z,8.70
2023-04-18T03:06:35.972Z,8.80
2023-04-18T03:09:05.460Z,8.70
2023-04-18T03:11:37.372Z,8.70
2023-04-18T03:14:07.513Z,8.80
2023-04-18T03:16:47.828Z,8.80
2023-04-18T03:19:20.881Z,8.70
2023-04-18T03:21:51.863Z,8.70
2023-04-18T03:24:20.644Z,8.80
2023-04-18T03:26:52.663Z,8.80
2023-04-18T03:29:25.315Z,8.80
2023-04-18T03:31:54.007Z,8.80
2023-04-18T03:34:22.811Z,8.80
2023-04-18T03:36:53.658Z,8.70
2023-04-18T03:39:23.301Z,8.70
2023-04-18T03:41:54.669Z,8.60
2023-04-18T03:44:23.660Z,8.60
2023-04-18T03:46:52.629Z,8.60
2023-04-18T03:49:21.409Z,8.60
2023-04-18T03:51:50.510Z,8.60
2023-04-18T03:54:21.855Z,8.60
2023-04-18T03:56:51.671Z,8.60
2023-04-18T03:59:24.650Z,8.60
2023-04-18T04:01:53.665Z,8.50
2023-04-18T04:04:22.815Z,8.60
2023-04-18T04:06:53.762Z,8.70
2023-04-18T04:09:24.288Z,8.60
2023-04-18T04:11:53.481Z,8.60
2023-04-18T04:14:23.015Z,8.60
2023-04-18T04:16:52.418Z,8.60
2023-04-18T04:19:22.078Z,8.60
2023-04-18T04:21:58.942Z,8.60
2023-04-18T04:24:30.861Z,8.60
2023-04-18T04:27:04.312Z,8.70
2023-04-18T04:29:39.848Z,8.60
2023-04-18T04:32:09.469Z,8.40
2023-04-18T04:34:42.186Z,8.50
2023-04-18T04:37:15.664Z,8.60
2023-04-18T04:40:00.899Z,8.50
2023-04-18T04:42:43.813Z,8.50
2023-04-18T04:45:20.121Z,8.30
2023-04-18T04:47:49.964Z,8.30
2023-04-18T04:50:21.565Z,8.30
2023-04-18T04:52:50.675Z,8.40
2023-04-18T04:55:21.383Z,8.40
2023-04-18T04:57:52.147Z,8.40
2023-04-18T05:00:38.084Z,8.30
2023-04-18T05:03:07.208Z,8.30
2023-04-18T05:05:36.260Z,8.30
2023-04-18T05:08:05.311Z,8.20
2023-04-18T05:10:37.171Z,8.30
2023-04-18T05:13:06.463Z,8.30
2023-04-18T05:15:36.042Z,8.40
2023-04-18T05:18:05.162Z,8.40
2023-04-18T05:20:34.119Z,8.30
2023-04-18T05:23:03.374Z,8.30
2023-04-18T05:25:34.161Z,8.30
2023-04-18T05:28:04.588Z,8.30
2023-04-18T05:30:33.353Z,8.30
2023-04-18T05:33:02.055Z,8.30
2023-04-18T05:35:30.817Z,8.20
2023-04-18T05:38:00.115Z,8.30
2023-04-18T05:40:30.072Z,8.30
2023-04-18T05:43:00.430Z,8.30
2023-04-18T05:45:29.114Z,8.30
2023-04-18T05:47:57.919Z,8.30
2023-04-18T05:50:26.746Z,8.30
2023-04-18T05:52:55.407Z,8.30
2023-04-18T05:55:24.120Z,8.30
2023-04-18T05:57:52.858Z,8.30
2023-04-18T06:00:23.699Z,8.30
2023-04-18T06:02:52.518Z,8.30
2023-04-18T06:05:21.656Z,8.30
2023-04-18T06:07:50.735Z,8.30
2023-04-18T06:10:19.382Z,8.30
2023-04-18T06:12:47.976Z,8.20
2023-04-18T06:15:16.651Z,8.20
2023-04-18T06:17:46.708Z,8.10
2023-04-18T06:20:15.573Z,8.30
2023-04-18T06:22:44.277Z,8.20
2023-04-18T06:25:12.953Z,8.30
2023-04-18T06:27:41.701Z,8.30
2023-04-18T06:30:12.073Z,8.30
2023-04-18T06:32:40.867Z,8.30
2023-04-18T06:35:11.492Z,8.30
2023-04-18T06:37:44.075Z,8.30
2023-04-18T06:40:13.748Z,8.30
2023-04-18T06:42:44.791Z,8.20
2023-04-18T06:45:14.267Z,8.10
2023-04-18T06:47:43.068Z,8.10
2023-04-18T06:50:13.266Z,8.10
2023-04-18T06:52:44.514Z,8.10
2023-04-18T06:55:14.775Z,8.20
2023-04-18T06:57:44.548Z,8.30
2023-04-18T07:00:14.474Z,8.30
2023-04-18T07:02:43.631Z,8.20
2023-04-18T07:05:13.925Z,8.20
2023-04-18T07:07:42.590Z,8.10
2023-04-18T07:10:12.360Z,8.10
2023-04-18T07:12:41.027Z,8.10
2023-04-18T07:15:11.784Z,8.20
2023-04-18T07:17:40.558Z,8.20
2023-04-18T07:20:12.979Z,8.20
2023-04-18T07:22:44.401Z,8.10
2023-04-18T07:25:13.256Z,8.10
2023-04-18T07:27:41.903Z,8.00
2023-04-18T07:30:12.063Z,8.00
2023-04-18T07:32:40.754Z,8.10
2023-04-18T07:35:10.411Z,8.00
2023-04-18T07:37:39.302Z,8.00
2023-04-18T07:40:11.617Z,8.10
2023-04-18T07:42:40.374Z,8.10
2023-04-18T07:45:09.833Z,8.10
2023-04-18T07:47:38.617Z,8.00
2023-04-18T07:50:10.321Z,8.10
2023-04-18T07:52:39.577Z,8.10
2023-04-18T07:55:11.003Z,8.20
2023-04-18T07:57:39.862Z,8.10
2023-04-18T08:00:10.634Z,8.20
2023-04-18T08:02:42.303Z,8.20
2023-04-18T08:05:12.090Z,8.10
2023-04-18T08:07:40.897Z,8.10
2023-04-18T08:10:11.916Z,8.10
2023-04-18T08:12:40.718Z,8.20
2023-04-18T08:15:11.057Z,8.20
2023-04-18T08:17:42.746Z,8.10
2023-04-18T08:20:13.070Z,7.90
2023-04-18T08:22:57.794Z,8.00
2023-04-18T08:25:33.233Z,8.00
2023-04-18T08:28:02.097Z,8.10
2023-04-18T08:30:31.404Z,8.20
2023-04-18T08:33:01.194Z,8.30
2023-04-18T08:35:30.004Z,8.10
2023-04-18T08:37:59.095Z,8.00
2023-04-18T08:40:27.767Z,8.20
2023-04-18T08:43:01.276Z,8.10
2023-04-18T08:45:31.344Z,8.10
2023-04-18T08:48:01.639Z,8.10
2023-04-18T08:50:30.447Z,8.20
2023-04-18T08:53:02.097Z,8.10
2023-04-18T08:55:30.881Z,8.20
2023-04-18T08:58:01.485Z,8.10
2023-04-18T09:00:30.673Z,8.10
2023-04-18T09:02:59.837Z,8.20
2023-04-18T09:05:29.782Z,8.10
2023-04-18T09:07:58.558Z,8.20
2023-04-18T09:10:29.893Z,8.10
2023-04-18T09:13:03.410Z,8.10
2023-04-18T09:15:32.678Z,8.20
2023-04-18T09:18:03.542Z,8.30
2023-04-18T09:20:37.741Z,8.30
2023-04-18T09:23:11.229Z,8.30
2023-04-18T09:25:46.747Z,8.30
2023-04-18T09:28:28.218Z,8.30
2023-04-18T09:30:58.681Z,8.30
2023-04-18T09:33:29.441Z,8.40
2023-04-18T09:36:16.709Z,8.30
2023-04-18T09:38:45.897Z,8.30
2023-04-18T09:41:19.938Z,8.30
2023-04-18T09:43:52.273Z,8.20
2023-04-18T09:46:22.644Z,8.30
2023-04-18T09:48:51.554Z,8.40
2023-04-18T09:51:20.945Z,8.30
2023-04-18T09:53:51.092Z,8.30
2023-04-18T09:56:26.788Z,8.30
2023-04-18T09:59:08.501Z,8.20
2023-04-18T10:01:37.805Z,8.30
2023-04-18T10:04:08.066Z,8.30
2023-04-18T10:06:39.942Z,8.40
2023-04-18T10:09:10.979Z,8.40
2023-04-18T10:11:40.469Z,8.40
2023-04-18T10:14:14.956Z,8.40
2023-04-18T10:16:47.485Z,8.40
2023-04-18T10:19:25.335Z,8.30
2023-04-18T10:21:56.096Z,8.40
2023-04-18T10:24:57.167Z,8.40
2023-04-18T10:27:59.979Z,8.50
2023-04-18T10:31:03.877Z,8.50
2023-04-18T10:33:35.357Z,8.50
2023-04-18T10:36:20.551Z,8.50
2023-04-18T10:38:53.081Z,8.50
2023-04-18T10:41:27.646Z,8.50
2023-04-18T10:44:20.676Z,8.40
2023-04-18T10:47:34.065Z,8.40
2023-04-18T10:50:06.895Z,8.50
2023-04-18T10:52:36.499Z,8.40
2023-04-18T10:55:17.613Z,8.40
2023-04-18T10:57:48.424Z,8.50
2023-04-18T11:00:21.729Z,8.40
2023-04-18T11:02:57.893Z,8.50
2023-04-18T11:05:30.174Z,8.50
2023-04-18T11:07:58.895Z,8.50
2023-04-18T11:10:29.546Z,8.50
2023-04-18T11:13:04.568Z,8.50
2023-04-18T11:15:33.425Z,8.50
2023-04-18T11:18:05.459Z,8.50
2023-04-18T11:20:47.095Z,8.50
2023-04-18T11:23:22.976Z,8.60
2023-04-18T11:25:54.594Z,8.50
2023-04-18T11:28:25.147Z,8.50
2023-04-18T11:30:58.425Z,8.60
2023-04-18T11:33:30.376Z,8.60
2023-04-18T11:36:00.630Z,8.70
2023-04-18T11:38:31.331Z,8.60
2023-04-18T11:41:00.432Z,8.60
2023-04-18T11:43:29.132Z,8.50
2023-04-18T11:45:59.612Z,8.50
2023-04-18T11:48:36.544Z,8.60
2023-04-18T11:51:07.493Z,8.60
2023-04-18T11:53:38.943Z,8.60
2023-04-18T11:56:08.785Z,8.60
2023-04-18T11:58:38.281Z,8.60
2023-04-18T12:01:21.810Z,8.60
2023-04-18T12:04:07.412Z,8.60
2023-04-18T12:06:52.963Z,8.60
2023-04-18T12:09:24.593Z,8.70
2023-04-18T12:12:02.184Z,8.70
2023-04-18T12:14:32.433Z,8.60
2023-04-18T12:17:06.579Z,8.60
2023-04-18T12:19:35.577Z,8.70
2023-04-18T12:22:06.813Z,8.70
2023-04-18T12:24:38.050Z,8.70
2023-04-18T12:27:09.812Z,8.70
2023-04-18T12:29:40.138Z,8.80
2023-04-18T12:32:09.889Z,8.80
2023-04-18T12:34:39.573Z,8.80
2023-04-18T12:37:16.759Z,8.80
2023-04-18T12:39:47.934Z,8.80
2023-04-18T12:42:17.840Z,8.80
2023-04-18T12:44:47.993Z,8.80
2023-04-18T12:47:18.868Z,8.80
2023-04-18T12:49:49.250Z,8.80
2023-04-18T12:52:22.446Z,8.80
2023-04-18T12:54:53.317Z,8.80
2023-04-18T12:57:24.405Z,8.80
2023-04-18T12:59:55.149Z,8.80
2023-04-18T13:02:25.408Z,8.90
2023-04-18T13:04:54.438Z,8.80
2023-04-18T13:07:27.587Z,8.80
2023-04-18T13:09:58.373Z,8.80
2023-04-18T13:12:29.952Z,8.80
2023-04-18T13:15:01.006Z,8.80
2023-04-18T13:17:30.941Z,8.80
2023-04-18T13:20:02.527Z,8.80
2023-04-18T13:22:34.602Z,8.80
2023-04-18T13:25:05.602Z,8.80
2023-04-18T13:27:38.099Z,8.80
2023-04-18T13:30:13.134Z,8.80
2023-04-18T13:32:47.845Z,8.80
2023-04-18T13:35:20.112Z,8.80
2023-04-18T13:37:51.729Z,8.80
2023-04-18T13:40:21.465Z,8.80
2023-04-18T13:42:52.051Z,8.90
2023-04-18T13:45:21.820Z,8.90
2023-04-18T13:47:53.038Z,8.90
2023-04-18T13:50:23.369Z,9.00
2023-04-18T13:52:56.921Z,8.90
2023-04-18T13:55:28.064Z,8.90
2023-04-18T13:57:59.466Z,8.90
2023-04-18T14:00:30.501Z,8.90
2023-04-18T14:03:00.707Z,8.90
2023-04-18T14:05:31.253Z,9.00
2023-04-18T14:08:04.339Z,8.90
2023-04-18T14:10:34.822Z,8.90
2023-04-18T14:13:03.917Z,8.90
2023-04-18T14:15:35.062Z,8.90
2023-04-18T14:18:04.029Z,8.90
2023-04-18T14:20:38.191Z,8.90
2023-04-18T14:23:08.707Z,8.90
2023-04-18T14:25:38.646Z,8.90
2023-04-18T14:28:10.881Z,8.90
2023-04-18T14:30:41.354Z,8.90
2023-04-18T14:33:10.826Z,8.90
2023-04-18T14:35:40.605Z,8.90
2023-04-18T14:38:11.381Z,9.00
2023-04-18T14:40:43.264Z,9.00
2023-04-18T14:43:25.068Z,9.00
2023-04-18T14:45:54.068Z,9.00
2023-04-18T14:48:22.879Z,9.00
2023-04-18T14:50:58.422Z,9.00
2023-04-18T14:53:28.879Z,9.10
2023-04-18T14:55:57.732Z,9.10
2023-04-18T14:58:26.868Z,9.10
2023-04-18T15:00:55.912Z,9.10
2023-04-18T15:03:25.369Z,9.10
2023-04-18T15:05:54.780Z,9.10
2023-04-18T15:08:23.428Z,9.10
2023-04-18T15:10:53.572Z,9.10
2023-04-18T15:13:22.528Z,9.10
2023-04-18T15:15:55.943Z,9.10
2023-04-18T15:18:26.109Z,9.10
2023-04-18T15:20:57.259Z,9.10
2023-04-18T15:23:26.358Z,9.10
2023-04-18T15:25:59.977Z,9.20
2023-04-18T15:28:29.708Z,9.10
2023-04-18T15:30:58.649Z,9.10
2023-04-18T15:33:28.498Z,9.10
2023-04-18T15:35:57.349Z,9.10
2023-04-18T15:38:26.416Z,9.20
2023-04-18T15:40:56.569Z,9.20
2023-04-18T15:43:25.868Z,9.20
2023-04-18T15:45:54.899Z,9.20
2023-04-18T15:48:23.759Z,9.20
2023-04-18T15:50:53.253Z,9.20
2023-04-18T15:53:22.079Z,9.20
2023-04-18T15:55:51.515Z,9.20
2023-04-18T15:58:22.188Z,9.20
2023-04-18T16:00:51.981Z,9.20
2023-04-18T16:03:21.500Z,9.20
2023-04-18T16:05:50.794Z,9.20
2023-04-18T16:08:20.746Z,9.30
2023-04-18T16:10:50.033Z,9.30
2023-04-18T16:13:20.444Z,9.20
2023-04-18T16:15:49.498Z,9.30
2023-04-18T16:18:18.369Z,9.30
2023-04-18T16:20:47.469Z,9.30
2023-04-18T16:23:17.073Z,9.30
2023-04-18T16:25:46.279Z,9.30
2023-04-18T16:28:17.067Z,9.30
2023-04-18T16:30:48.024Z,9.20
2023-04-18T16:33:20.797Z,9.20
2023-04-18T16:35:49.917Z,9.20
2023-04-18T16:38:18.938Z,9.20
2023-04-18T16:40:48.206Z,9.30
2023-04-18T16:43:17.030Z,9.30
2023-04-18T16:45:47.662Z,9.40
2023-04-18T16:48:16.413Z,9.40
2023-04-18T16:50:46.774Z,9.40
2023-04-18T16:53:15.493Z,9.40
2023-04-18T16:55:46.225Z,9.40
2023-04-18T16:58:26.629Z,9.40
2023-04-18T17:01:12.041Z,9.40
2023-04-18T17:03:41.114Z,9.40
2023-04-18T17:06:09.952Z,9.40
2023-04-18T17:08:39.036Z,9.40
2023-04-18T17:11:09.236Z,9.40
2023-04-18T17:13:39.139Z,9.40
2023-04-18T17:16:09.650Z,9.40
2023-04-18T17:18:38.560Z,9.50
2023-04-18T17:21:07.873Z,9.50
2023-04-18T17:23:38.600Z,9.50
2023-04-18T17:26:07.540Z,9.50
2023-04-18T17:28:36.518Z,9.50
2023-04-18T17:31:06.759Z,9.50
2023-04-18T17:33:37.193Z,9.50
2023-04-18T17:36:07.797Z,9.50
2023-04-18T17:38:36.640Z,9.50
2023-04-18T17:41:06.739Z,9.50
2023-04-18T17:43:35.575Z,9.50
2023-04-18T17:46:04.339Z,9.50
2023-04-18T17:48:33.139Z,9.50
2023-04-18T17:51:03.429Z,9.50
2023-04-18T17:53:32.634Z,9.50
2023-04-18T17:56:03.897Z,9.50
2023-04-18T17:58:33.009Z,9.50
2023-04-18T18:01:02.029Z,9.60
2023-04-18T18:03:31.375Z,9.60
2023-04-18T18:06:00.434Z,9.60
2023-04-18T18:08:30.953Z,9.60
2023-04-18T18:11:01.337Z,9.60
2023-04-18T18:13:31.550Z,9.60
2023-04-18T18:16:00.439Z,9.60
2023-04-18T18:18:32.213Z,9.60
2023-04-18T18:21:03.413Z,9.60
2023-04-18T18:23:35.366Z,9.60
2023-04-18T18:26:06.605Z,9.60
2023-04-18T18:28:36.981Z,9.60
2023-04-18T18:31:06.292Z,9.60
2023-04-18T18:33:35.406Z,9.60
2023-04-18T18:36:04.316Z,9.60
2023-04-18T18:38:35.616Z,9.60
2023-04-18T18:41:04.784Z,9.60
2023-04-18T18:43:35.668Z,9.60
2023-04-18T18:46:04.562Z,9.60
2023-04-18T18:48:38.077Z,9.60
2023-04-18T18:51:06.822Z,9.60
2023-04-18T18:53:39.659Z,9.60
2023-04-18T18:56:10.300Z,9.60
2023-04-18T18:58:39.311Z,9.60
2023-04-18T19:01:08.400Z,9.70
2023-04-18T19:03:37.809Z,9.70
2023-04-18T19:06:08.760Z,9.60
2023-04-18T19:08:41.522Z,9.60
2023-04-18T19:11:12.924Z,9.60
2023-04-18T19:13:45.147Z,9.60
2023-04-18T19:16:14.351Z,9.60
2023-04-18T19:18:47.059Z,9.60
2023-04-18T19:21:16.875Z,9.60
2023-04-18T19:23:49.773Z,9.60
2023-04-18T19:26:20.011Z,9.60
2023-04-18T19:28:49.877Z,9.60
2023-04-18T19:31:18.891Z,9.60
2023-04-18T19:33:48.731Z,9.60
2023-04-18T19:36:17.509Z,9.60
2023-04-18T19:38:46.562Z,9.60
2023-04-18T19:41:17.289Z,9.60
2023-04-18T19:43:46.792Z,9.60
2023-04-18T19:46:15.538Z,9.60
2023-04-18T19:48:56.780Z,9.60
2023-04-18T19:51:28.809Z,9.60
2023-04-18T19:53:57.863Z,9.60
2023-04-18T19:56:28.740Z,9.60
2023-04-18T19:58:58.036Z,9.60
2023-04-18T20:01:27.109Z,9.60
2023-04-18T20:03:58.681Z,9.50
2023-04-18T20:06:27.877Z,9.60
2023-04-18T20:08:56.564Z,9.60
2023-04-18T20:11:27.619Z,9.60
2023-04-18T20:13:56.682Z,9.60
2023-04-18T20:16:25.439Z,9.60
2023-04-18T20:18:55.234Z,9.60
2023-04-18T20:21:23.870Z,9.70
2023-04-18T20:23:52.593Z,9.60
2023-04-18T20:26:21.253Z,9.60
2023-04-18T20:28:51.494Z,9.70
2023-04-18T20:31:20.295Z,9.60
2023-04-18T20:33:49.206Z,9.70
2023-04-18T20:36:18.635Z,9.60
2023-04-18T20:38:47.304Z,9.60
2023-04-18T20:41:18.342Z,9.60
2023-04-18T20:43:47.089Z,9.60
2023-04-18T20:46:17.324Z,9.60
2023-04-18T20:48:45.991Z,9.60
2023-04-18T20:51:14.720Z,9.60
2023-04-18T20:53:43.457Z,9.60
2023-04-18T20:56:12.104Z,9.60
2023-04-18T20:58:41.859Z,9.60
2023-04-18T21:01:10.590Z,9.60
2023-04-18T21:03:40.813Z,9.60
2023-04-18T21:06:09.545Z,9.60
2023-04-18T21:08:39.425Z,9.50
2023-04-18T21:11:08.560Z,9.60
2023-04-18T21:13:37.841Z,9.60
2023-04-18T21:16:10.324Z,9.60
2023-04-18T21:18:40.491Z,9.60
2023-04-18T21:21:09.226Z,9.60
2023-04-18T21:23:43.858Z,9.60
2023-04-18T21:26:14.153Z,9.60
2023-04-18T21:28:57.392Z,9.50
2023-04-18T21:31:27.142Z,9.60
2023-04-18T21:33:59.395Z,9.60
2023-04-18T21:36:30.677Z,9.60
2023-04-18T21:39:01.488Z,9.60
2023-04-18T21:41:30.260Z,9.50
2023-04-18T21:43:58.881Z,9.60
2023-04-18T21:46:27.622Z,9.60
2023-04-18T21:48:57.844Z,9.60
2023-04-18T21:51:27.244Z,9.60
2023-04-18T21:53:56.034Z,9.60
2023-04-18T21:56:24.744Z,9.60
2023-04-18T21:58:53.432Z,9.60
2023-04-18T22:01:22.351Z,9.60
2023-04-18T22:03:51.296Z,9.60
2023-04-18T22:06:23.211Z,9.60
2023-04-18T22:08:52.132Z,9.50
2023-04-18T22:11:23.652Z,9.50
2023-04-18T22:13:54.252Z,9.50
2023-04-18T22:16:24.620Z,9.50
2023-04-18T22:18:54.060Z,9.50
2023-04-18T22:21:24.231Z,9.50
2023-04-18T22:23:52.979Z,9.50
2023-04-18T22:26:21.816Z,9.50
2023-04-18T22:28:50.617Z,9.60
2023-04-18T22:31:19.355Z,9.60
2023-04-18T22:33:48.489Z,9.50
2023-04-18T22:36:17.100Z,9.50
2023-04-18T22:38:47.229Z,9.50
2023-04-18T22:41:15.911Z,9.50
2023-04-18T22:43:44.571Z,9.50
2023-04-18T22:46:13.321Z,9.40
2023-04-18T22:48:42.152Z,9.40
2023-04-18T22:51:11.036Z,9.50
2023-04-18T22:53:39.690Z,9.50
2023-04-18T22:56:10.172Z,9.50
2023-04-18T22:58:38.863Z,9.50
2023-04-18T23:01:07.679Z,9.50
2023-04-18T23:03:36.617Z,9.50
2023-04-18T23:06:07.499Z,9.40
2023-04-18T23:08:36.161Z,9.40
2023-04-18T23:11:04.800Z,9.40
2023-04-18T23:13:34.864Z,9.40
2023-04-18T23:16:03.599Z,9.50
2023-04-18T23:18:32.437Z,9.50
2023-04-18T23:21:02.023Z,9.40
2023-04-18T23:23:30.955Z,9.40
2023-04-18T23:26:00.274Z,9.40
2023-04-18T23:28:28.975Z,9.40
2023-04-18T23:30:59.208Z,9.40
2023-04-18T23:33:27.867Z,9.50
2023-04-18T23:35:56.534Z,9.40
2023-04-18T23:38:25.317Z,9.40
2023-04-18T23:40:54.119Z,9.40
2023-04-18T23:43:22.757Z,9.40
2023-04-18T23:45:51.439Z,9.40
2023-04-18T23:48:21.642Z,9.40
2023-04-18T23:50:52.705Z,9.40
2023-04-18T23:53:22.590Z,9.40
2023-04-18T23:55:51.571Z,9.40
2023-04-18T23:58:20.234Z,9.40
